createdAt,value
2019-06-07T00:01:50.139Z,24.78
2019-06-07T00:04:21.422Z,24.75
2019-06-07T00:06:51.682Z,24.76
2019-06-07T00:09:22.629Z,24.71
2019-06-07T00:11:52.594Z,24.70
2019-06-07T00:14:23.831Z,24.62
2019-06-07T00:16:53.439Z,24.58
2019-06-07T00:19:23.292Z,24.57
2019-06-07T00:22:15.457Z,24.60
2019-06-07T00:24:24.677Z,24.56
2019-06-07T00:26:58.892Z,24.49
2019-06-07T00:29:25.797Z,24.47
2019-06-07T00:31:55.434Z,24.40
2019-06-07T00:34:25.221Z,24.28
2019-06-07T00:36:54.835Z,24.26
2019-06-07T00:39:26.205Z,24.27
2019-06-07T00:41:56.117Z,24.30
2019-06-07T00:44:25.756Z,24.26
2019-06-07T00:46:55.664Z,24.23
2019-06-07T00:49:40.098Z,24.22
2019-06-07T00:51:56.842Z,24.23
2019-06-07T00:54:26.928Z,24.27
2019-06-07T00:56:56.638Z,24.26
2019-06-07T00:59:29.564Z,24.26
2019-06-07T01:01:58.482Z,24.22
2019-06-07T01:04:28.221Z,24.03
2019-06-07T01:06:57.852Z,23.85
2019-06-07T01:09:27.549Z,23.73
2019-06-07T01:11:57.249Z,23.72
2019-06-07T01:14:28.395Z,23.74
2019-06-07T01:17:20.136Z,23.78
2019-06-07T01:19:30.040Z,23.78
2019-06-07T01:21:59.690Z,23.85
2019-06-07T01:24:29.324Z,23.85
2019-06-07T01:26:59.039Z,23.89
2019-06-07T01:29:31.007Z,23.93
2019-06-07T01:32:00.386Z,23.99
2019-06-07T01:34:30.065Z,24.04
2019-06-07T01:36:59.692Z,24.03
2019-06-07T01:39:31.681Z,24.02
2019-06-07T01:42:01.917Z,23.99
2019-06-07T01:44:31.775Z,23.98
2019-06-07T01:47:01.418Z,23.94
2019-06-07T01:49:31.099Z,23.95
2019-06-07T01:52:00.733Z,23.91
2019-06-07T01:57:02.261Z,23.88
2019-06-07T01:59:32.841Z,23.85
2019-06-07T02:02:03.209Z,23.77
2019-06-07T02:04:33.687Z,23.72
2019-06-07T02:07:04.114Z,23.68
2019-06-07T02:09:35.470Z,23.64
2019-06-07T02:12:25.104Z,23.58
2019-06-07T02:14:36.579Z,23.57
2019-06-07T02:17:06.203Z,23.60
2019-06-07T02:19:35.964Z,23.63
2019-06-07T02:22:05.584Z,23.56
2019-06-07T02:24:36.454Z,23.51
2019-06-07T02:27:06.399Z,23.51
2019-06-07T02:29:36.039Z,23.49
2019-06-07T02:32:05.677Z,23.44
2019-06-07T02:34:39.311Z,23.46
2019-06-07T02:37:07.044Z,23.51
2019-06-07T02:39:40.454Z,23.49
2019-06-07T02:42:08.229Z,23.42
2019-06-07T02:44:40.479Z,23.40
2019-06-07T02:47:10.344Z,23.37
2019-06-07T02:49:42.357Z,23.36
2019-06-07T02:52:12.355Z,23.39
2019-06-07T02:54:42.135Z,23.41
2019-06-07T02:57:11.861Z,23.42
2019-06-07T03:00:05.581Z,23.48
2019-06-07T03:02:13.434Z,23.49
2019-06-07T03:04:44.855Z,23.42
2019-06-07T03:07:16.839Z,23.29
2019-06-07T03:09:48.416Z,23.16
2019-06-07T03:12:20.389Z,23.10
2019-06-07T03:14:50.998Z,23.15
2019-06-07T03:17:23.954Z,23.14
2019-06-07T03:19:56.932Z,23.12
2019-06-07T03:22:26.780Z,23.11
2019-06-07T03:24:56.386Z,23.16
2019-06-07T03:27:38.161Z,23.21
2019-06-07T03:29:57.565Z,23.26
2019-06-07T03:32:30.297Z,23.28
2019-06-07T03:34:58.943Z,23.29
2019-06-07T03:37:30.765Z,23.37
2019-06-07T03:39:59.910Z,23.40
2019-06-07T03:42:31.557Z,23.44
2019-06-07T03:45:01.000Z,23.49
2019-06-07T03:47:32.451Z,23.48
2019-06-07T03:50:02.082Z,23.45
2019-06-07T03:52:35.533Z,23.51
2019-06-07T03:55:05.636Z,23.52
2019-06-07T03:58:24.869Z,23.54
2019-06-07T04:00:10.014Z,23.52
2019-06-07T04:02:41.892Z,23.52
2019-06-07T04:05:11.600Z,23.52
2019-06-07T04:07:44.426Z,23.50
2019-06-07T04:10:15.619Z,23.49
2019-06-07T04:12:45.558Z,23.45
2019-06-07T04:15:16.988Z,23.42
2019-06-07T04:18:01.305Z,23.42
2019-06-07T04:20:18.136Z,23.43
2019-06-07T04:22:47.768Z,23.41
2019-06-07T04:25:17.509Z,23.40
2019-06-07T04:27:47.186Z,23.41
2019-06-07T04:30:37.287Z,23.40
2019-06-07T04:33:07.632Z,23.43
2019-06-07T04:35:42.494Z,23.43
2019-06-07T04:38:15.568Z,23.38
2019-06-07T04:40:45.387Z,23.35
2019-06-07T04:43:16.009Z,23.25
2019-06-07T04:45:51.063Z,23.20
2019-06-07T04:48:21.461Z,23.13
2019-06-07T04:50:51.054Z,23.12
2019-06-07T04:53:22.785Z,23.14
2019-06-07T04:55:52.495Z,23.17
2019-06-07T04:58:22.132Z,23.21
2019-06-07T05:00:58.390Z,23.17
2019-06-07T05:03:23.164Z,23.09
2019-06-07T05:05:52.811Z,22.94
2019-06-07T05:08:28.037Z,22.83
2019-06-07T05:10:54.573Z,22.74
2019-06-07T05:13:24.219Z,22.70
2019-06-07T05:15:53.963Z,22.74
2019-06-07T05:18:23.618Z,22.74
2019-06-07T05:20:53.513Z,22.73
2019-06-07T05:24:25.566Z,22.66
2019-06-07T05:25:55.186Z,22.65
2019-06-07T05:28:24.828Z,22.68
2019-06-07T05:31:05.403Z,22.71
2019-06-07T05:33:25.876Z,22.77
2019-06-07T05:35:55.589Z,22.81
2019-06-07T05:38:25.243Z,22.81
2019-06-07T05:40:54.874Z,22.81
2019-06-07T05:43:26.858Z,22.84
2019-06-07T05:45:56.585Z,22.81
2019-06-07T05:48:26.826Z,22.85
2019-06-07T05:50:57.647Z,22.92
2019-06-07T05:53:27.548Z,22.93
2019-06-07T05:55:57.174Z,22.99
2019-06-07T05:58:26.804Z,22.90
2019-06-07T06:00:56.528Z,22.88
2019-06-07T06:03:27.840Z,22.90
2019-06-07T06:05:57.483Z,22.90
2019-06-07T06:08:26.797Z,22.91
2019-06-07T06:10:56.422Z,22.96
2019-06-07T06:13:26.346Z,23.00
2019-06-07T06:16:01.976Z,23.03
2019-06-07T06:18:27.429Z,23.05
2019-06-07T06:21:18.780Z,23.11
2019-06-07T06:23:29.071Z,23.11
2019-06-07T06:25:58.708Z,23.10
2019-06-07T06:28:28.330Z,23.09
2019-06-07T06:30:58.054Z,23.11
2019-06-07T06:33:34.359Z,23.10
2019-06-07T06:35:59.073Z,23.00
2019-06-07T06:38:28.733Z,22.94
2019-06-07T06:41:14.736Z,22.95
2019-06-07T06:43:30.324Z,23.00
2019-06-07T06:46:00.173Z,23.02
2019-06-07T06:48:29.801Z,22.94
2019-06-07T06:50:59.423Z,22.90
2019-06-07T06:53:29.089Z,22.89
2019-06-07T06:55:58.982Z,22.91
2019-06-07T06:58:28.620Z,22.96
2019-06-07T07:01:06.636Z,23.01
2019-06-07T07:03:56.782Z,23.08
2019-06-07T07:06:24.811Z,23.12
2019-06-07T07:08:35.319Z,23.14
2019-06-07T07:11:05.099Z,23.11
2019-06-07T07:13:34.849Z,23.12
2019-06-07T07:16:05.567Z,23.14
2019-06-07T07:18:35.370Z,23.10
2019-06-07T07:21:05.383Z,23.12
2019-06-07T07:23:35.086Z,23.13
2019-06-07T07:26:04.959Z,23.11
2019-06-07T07:28:35.567Z,23.13
2019-06-07T07:31:05.362Z,23.09
2019-06-07T07:34:20.750Z,23.08
2019-06-07T07:36:28.107Z,23.10
2019-06-07T07:38:37.993Z,23.12
2019-06-07T07:41:15.191Z,23.14
2019-06-07T07:43:39.524Z,23.12
2019-06-07T07:46:28.654Z,23.11
2019-06-07T07:48:43.515Z,23.05
2019-06-07T07:51:13.221Z,23.02
2019-06-07T07:53:51.920Z,23.06
2019-06-07T07:56:14.305Z,23.09
2019-06-07T07:58:48.752Z,23.12
2019-06-07T08:01:16.033Z,23.15
2019-06-07T08:03:45.932Z,23.21
2019-06-07T08:06:15.851Z,23.24
2019-06-07T08:08:46.338Z,23.35
2019-06-07T08:11:16.074Z,23.37
2019-06-07T08:13:45.807Z,23.45
2019-06-07T08:16:18.658Z,23.53
2019-06-07T08:18:51.061Z,23.58
2019-06-07T08:21:26.411Z,23.61
2019-06-07T08:23:58.364Z,23.69
2019-06-07T08:26:23.983Z,23.77
2019-06-07T08:28:58.432Z,23.80
2019-06-07T08:31:25.657Z,23.82
2019-06-07T08:33:57.962Z,23.84
2019-06-07T08:36:41.290Z,23.87
2019-06-07T08:39:07.046Z,23.89
2019-06-07T08:41:29.724Z,23.88
2019-06-07T08:44:02.586Z,23.88
2019-06-07T08:46:30.839Z,23.90
2019-06-07T08:49:04.240Z,23.88
2019-06-07T08:51:33.604Z,23.86
2019-06-07T08:54:21.609Z,23.84
2019-06-07T08:56:35.209Z,23.88
2019-06-07T08:59:11.117Z,23.92
2019-06-07T09:01:36.363Z,23.92
2019-06-07T09:04:10.059Z,23.94
2019-06-07T09:09:09.246Z,23.96
2019-06-07T09:11:38.891Z,23.99
2019-06-07T09:14:10.017Z,23.95
2019-06-07T09:16:39.654Z,24.02
2019-06-07T09:19:11.070Z,24.10
2019-06-07T09:21:40.659Z,24.18
2019-06-07T09:24:11.676Z,24.18
2019-06-07T09:26:41.860Z,24.18
2019-06-07T09:29:12.419Z,24.21
2019-06-07T09:31:52.673Z,24.26
2019-06-07T09:34:15.125Z,24.31
2019-06-07T09:36:44.833Z,24.39
2019-06-07T09:39:16.127Z,24.47
2019-06-07T09:41:50.116Z,24.51
2019-06-07T09:44:24.755Z,24.56
2019-06-07T09:47:09.612Z,24.63
2019-06-07T09:49:31.344Z,24.70
2019-06-07T09:51:51.377Z,24.76
2019-06-07T09:55:03.079Z,24.81
2019-06-07T09:56:52.610Z,24.87
2019-06-07T09:59:22.352Z,24.94
2019-06-07T10:01:52.321Z,25.02
2019-06-07T10:04:31.294Z,25.05
2019-06-07T10:06:53.390Z,25.05
2019-06-07T10:10:08.707Z,25.09
2019-06-07T10:11:54.485Z,25.17
2019-06-07T10:14:24.172Z,25.24
2019-06-07T10:16:53.812Z,25.31
2019-06-07T10:19:23.496Z,25.38
2019-06-07T10:21:53.206Z,25.42
2019-06-07T10:24:23.019Z,25.42
2019-06-07T10:26:52.649Z,25.41
2019-06-07T10:29:22.318Z,25.38
2019-06-07T10:31:52.013Z,25.38
2019-06-07T10:34:21.701Z,25.38
2019-06-07T10:36:51.589Z,25.38
2019-06-07T10:39:21.213Z,25.41
2019-06-07T10:41:53.966Z,25.41
2019-06-07T10:44:22.208Z,25.41
2019-06-07T10:46:51.848Z,25.43
2019-06-07T10:49:21.469Z,25.45
2019-06-07T10:51:52.530Z,25.44
2019-06-07T10:54:29.502Z,25.44
2019-06-07T10:56:53.552Z,25.42
2019-06-07T10:59:23.198Z,25.40
2019-06-07T11:01:52.897Z,25.43
2019-06-07T11:04:22.540Z,25.43
2019-06-07T11:06:52.222Z,25.45
2019-06-07T11:09:21.854Z,25.46
2019-06-07T11:11:51.492Z,25.51
2019-06-07T11:14:21.145Z,25.57
2019-06-07T11:16:50.886Z,25.61
2019-06-07T11:19:20.574Z,25.61
2019-06-07T11:21:51.047Z,25.66
2019-06-07T11:24:24.583Z,25.66
2019-06-07T11:26:52.002Z,25.68
2019-06-07T11:29:21.869Z,25.70
2019-06-07T11:31:51.504Z,25.78
2019-06-07T11:34:21.192Z,25.83
2019-06-07T11:36:51.187Z,25.91
2019-06-07T11:39:21.049Z,25.96
2019-06-07T11:41:52.417Z,25.96
2019-06-07T11:44:22.164Z,25.98
2019-06-07T11:46:51.926Z,26.00
2019-06-07T11:49:22.177Z,25.98
2019-06-07T11:51:52.025Z,25.94
2019-06-07T11:54:21.730Z,25.93
2019-06-07T11:56:51.460Z,25.89
2019-06-07T11:59:21.096Z,25.86
2019-06-07T12:01:50.793Z,25.84
2019-06-07T12:04:32.513Z,25.82
2019-06-07T12:06:52.035Z,25.78
2019-06-07T12:09:21.675Z,25.80
2019-06-07T12:11:51.574Z,25.87
2019-06-07T12:14:21.239Z,25.88
2019-06-07T12:16:50.938Z,25.89
2019-06-07T12:19:21.179Z,25.95
2019-06-07T12:21:50.827Z,25.98
2019-06-07T12:24:21.224Z,26.08
2019-06-07T12:26:51.090Z,26.23
2019-06-07T12:29:21.173Z,26.28
2019-06-07T12:31:50.837Z,26.28
2019-06-07T12:34:21.649Z,26.23
2019-06-07T12:36:51.370Z,26.22
2019-06-07T12:39:22.166Z,26.14
2019-06-07T12:41:51.909Z,26.08
2019-06-07T12:44:22.836Z,26.04
2019-06-07T12:46:52.571Z,25.99
2019-06-07T12:49:23.600Z,25.97
2019-06-07T12:51:53.419Z,25.95
2019-06-07T12:54:23.845Z,25.90
2019-06-07T12:56:53.599Z,25.85
2019-06-07T12:59:24.306Z,25.79
2019-06-07T13:01:54.482Z,25.73
2019-06-07T13:04:25.009Z,25.67
2019-06-07T13:06:54.875Z,25.60
2019-06-07T13:09:24.497Z,25.55
2019-06-07T13:11:54.803Z,25.51
2019-06-07T13:14:24.509Z,25.47
2019-06-07T13:16:54.144Z,25.43
2019-06-07T13:19:24.362Z,25.41
2019-06-07T13:21:54.160Z,25.39
2019-06-07T13:24:25.193Z,25.32
2019-06-07T13:27:13.310Z,25.30
2019-06-07T13:29:43.831Z,25.29
2019-06-07T13:32:13.446Z,25.26
2019-06-07T13:34:43.136Z,25.25
2019-06-07T13:37:12.845Z,25.26
2019-06-07T13:39:42.483Z,25.25
2019-06-07T13:42:12.216Z,25.25
2019-06-07T13:44:42.061Z,25.25
2019-06-07T13:47:11.702Z,25.27
2019-06-07T13:49:41.350Z,25.27
2019-06-07T13:52:10.979Z,25.27
2019-06-07T13:54:40.607Z,25.31
2019-06-07T13:57:10.311Z,25.31
2019-06-07T13:59:39.930Z,25.21
2019-06-07T14:02:09.789Z,25.22
2019-06-07T14:04:39.926Z,25.23
2019-06-07T14:07:09.563Z,25.28
2019-06-07T14:09:39.235Z,25.33
2019-06-07T14:12:08.922Z,25.38
2019-06-07T14:14:38.565Z,25.40
2019-06-07T14:17:08.215Z,25.42
2019-06-07T14:19:38.178Z,25.47
2019-06-07T14:22:08.085Z,25.50
2019-06-07T14:24:40.313Z,25.52
2019-06-07T14:27:15.444Z,25.55
2019-06-07T14:29:45.092Z,25.50
2019-06-07T14:32:16.159Z,25.44
2019-06-07T14:34:45.939Z,25.53
2019-06-07T14:37:15.570Z,25.68
2019-06-07T14:39:45.193Z,25.84
2019-06-07T14:42:15.028Z,25.89
2019-06-07T14:44:47.288Z,25.94
2019-06-07T14:47:16.877Z,25.99
2019-06-07T14:49:46.651Z,25.98
2019-06-07T14:52:16.270Z,25.93
2019-06-07T14:54:45.903Z,25.94
2019-06-07T14:57:15.660Z,25.95
2019-06-07T14:59:45.296Z,25.98
2019-06-07T15:02:14.922Z,26.04
2019-06-07T15:04:46.568Z,26.08
2019-06-07T15:07:16.273Z,26.11
2019-06-07T15:09:45.884Z,26.02
2019-06-07T15:12:24.765Z,25.95
2019-06-07T15:14:46.951Z,25.88
2019-06-07T15:17:16.582Z,25.83
2019-06-07T15:19:46.345Z,25.75
2019-06-07T15:22:16.031Z,25.73
2019-06-07T15:24:45.798Z,25.68
2019-06-07T15:27:15.643Z,25.67
2019-06-07T15:29:45.922Z,25.65
2019-06-07T15:32:16.440Z,25.66
2019-06-07T15:34:46.181Z,25.60
2019-06-07T15:37:15.754Z,25.55
2019-06-07T15:39:45.385Z,25.50
2019-06-07T15:42:15.058Z,25.40
2019-06-07T15:44:44.686Z,25.32
2019-06-07T15:47:14.312Z,25.27
2019-06-07T15:49:44.437Z,25.23
2019-06-07T15:52:14.097Z,25.27
2019-06-07T15:54:43.708Z,25.28
2019-06-07T15:57:13.464Z,25.40
2019-06-07T15:59:43.144Z,25.60
2019-06-07T16:02:12.787Z,25.81
2019-06-07T16:04:42.453Z,25.94
2019-06-07T16:07:12.151Z,26.13
2019-06-07T16:09:42.830Z,26.24
2019-06-07T16:12:12.894Z,26.30
2019-06-07T16:14:43.465Z,26.38
2019-06-07T16:17:13.344Z,26.41
2019-06-07T16:19:46.331Z,26.44
2019-06-07T16:22:14.631Z,26.51
2019-06-07T16:24:44.253Z,26.63
2019-06-07T16:27:13.966Z,26.71
2019-06-07T16:29:44.847Z,26.76
2019-06-07T16:32:14.607Z,26.77
2019-06-07T16:34:52.919Z,26.82
2019-06-07T16:37:22.863Z,26.89
2019-06-07T16:39:52.554Z,26.94
2019-06-07T16:42:23.699Z,26.95
2019-06-07T16:44:53.348Z,26.94
2019-06-07T16:47:22.974Z,26.96
2019-06-07T16:49:52.657Z,26.97
2019-06-07T16:52:22.323Z,26.93
2019-06-07T16:54:51.939Z,26.91
2019-06-07T16:57:21.667Z,26.84
2019-06-07T16:59:51.290Z,26.73
2019-06-07T17:02:20.950Z,26.63
2019-06-07T17:04:50.617Z,26.58
2019-06-07T17:07:20.320Z,26.52
2019-06-07T17:09:49.974Z,26.43
2019-06-07T17:12:19.655Z,26.32
2019-06-07T17:14:49.305Z,26.17
2019-06-07T17:17:18.915Z,26.04
2019-06-07T17:19:49.302Z,26.00
2019-06-07T17:22:18.958Z,25.97
2019-06-07T17:24:49.898Z,25.91
2019-06-07T17:27:19.842Z,25.79
2019-06-07T17:29:52.619Z,25.68
2019-06-07T17:32:22.273Z,25.57
2019-06-07T17:34:52.287Z,25.51
2019-06-07T17:37:22.061Z,25.46
2019-06-07T17:39:51.760Z,25.37
2019-06-07T17:42:21.420Z,25.30
2019-06-07T17:44:51.526Z,25.25
2019-06-07T17:47:21.419Z,25.20
2019-06-07T17:49:52.238Z,25.13
2019-06-07T17:52:23.766Z,25.06
2019-06-07T17:54:53.374Z,24.99
2019-06-07T17:57:23.061Z,24.90
2019-06-07T17:59:53.088Z,24.87
2019-06-07T18:02:22.785Z,24.84
2019-06-07T18:04:53.503Z,24.81
2019-06-07T18:07:25.167Z,24.72
2019-06-07T18:09:56.121Z,24.62
2019-06-07T18:12:25.833Z,24.53
2019-06-07T18:14:55.523Z,24.48
2019-06-07T18:17:34.043Z,24.39
2019-06-07T18:19:56.983Z,24.33
2019-06-07T18:22:26.699Z,24.26
2019-06-07T18:24:56.320Z,24.21
2019-06-07T18:27:26.016Z,24.18
2019-06-07T18:29:56.019Z,24.21
2019-06-07T18:32:25.667Z,24.21
2019-06-07T18:34:55.341Z,24.15
2019-06-07T18:37:25.087Z,24.05
2019-06-07T18:39:55.319Z,23.95
2019-06-07T18:42:24.901Z,23.86
2019-06-07T18:44:55.194Z,23.80
2019-06-07T18:47:25.021Z,23.78
2019-06-07T18:49:56.163Z,23.75
2019-06-07T18:52:29.017Z,23.73
2019-06-07T18:54:59.700Z,23.66
2019-06-07T18:57:29.343Z,23.60
2019-06-07T18:59:59.000Z,23.55
2019-06-07T19:02:28.895Z,23.46
2019-06-07T19:04:58.696Z,23.39
2019-06-07T19:07:28.323Z,23.26
2019-06-07T19:09:59.426Z,23.18
2019-06-07T19:12:29.217Z,23.17
2019-06-07T19:14:59.701Z,23.13
2019-06-07T19:17:29.449Z,23.09
2019-06-07T19:20:00.507Z,22.96
2019-06-07T19:22:30.729Z,22.93
2019-06-07T19:25:00.616Z,22.92
2019-06-07T19:27:32.895Z,22.86
2019-06-07T19:30:01.824Z,22.78
2019-06-07T19:32:31.505Z,22.76
2019-06-07T19:35:02.626Z,22.77
2019-06-07T19:37:32.273Z,22.71
2019-06-07T19:40:02.833Z,22.59
2019-06-07T19:42:32.579Z,22.56
2019-06-07T19:45:28.490Z,22.51
2019-06-07T19:47:33.716Z,22.45
2019-06-07T19:50:04.318Z,22.38
2019-06-07T19:52:34.011Z,22.37
2019-06-07T19:55:06.643Z,22.31
2019-06-07T19:57:38.426Z,22.29
2019-06-07T20:00:14.051Z,22.29
2019-06-07T20:02:40.296Z,22.26
2019-06-07T20:05:15.277Z,22.20
2019-06-07T20:07:44.957Z,22.19
2019-06-07T20:10:15.476Z,22.17
2019-06-07T20:12:45.523Z,22.12
2019-06-07T20:15:28.387Z,22.08
2019-06-07T20:17:47.192Z,22.06
2019-06-07T20:20:17.374Z,22.05
2019-06-07T20:22:47.058Z,21.95
2019-06-07T20:25:16.858Z,21.93
2019-06-07T20:27:46.499Z,21.98
2019-06-07T20:30:16.580Z,22.03
2019-06-07T20:32:46.316Z,22.06
2019-06-07T20:35:17.505Z,22.08
2019-06-07T20:37:47.134Z,22.04
2019-06-07T20:40:24.401Z,21.98
2019-06-07T20:42:48.634Z,22.00
2019-06-07T20:45:32.418Z,22.00
2019-06-07T20:47:51.671Z,21.94
2019-06-07T20:50:21.550Z,21.89
2019-06-07T20:52:51.181Z,21.80
2019-06-07T20:55:20.894Z,21.79
2019-06-07T20:57:50.544Z,21.75
2019-06-07T21:00:21.902Z,21.73
2019-06-07T21:02:51.851Z,21.63
2019-06-07T21:05:21.631Z,21.61
2019-06-07T21:07:51.281Z,21.59
2019-06-07T21:10:21.056Z,21.55
2019-06-07T21:12:50.695Z,21.57
2019-06-07T21:15:20.347Z,21.62
2019-06-07T21:17:50.033Z,21.66
2019-06-07T21:20:19.685Z,21.62
2019-06-07T21:22:49.343Z,21.65
2019-06-07T21:25:19.046Z,21.65
2019-06-07T21:27:49.058Z,21.61
2019-06-07T21:30:18.962Z,21.60
2019-06-07T21:32:48.713Z,21.63
2019-06-07T21:35:18.864Z,21.62
2019-06-07T21:37:48.515Z,21.58
2019-06-07T21:40:18.532Z,21.52
2019-06-07T21:42:48.164Z,21.48
2019-06-07T21:45:17.863Z,21.46
2019-06-07T21:47:47.537Z,21.42
2019-06-07T21:50:17.384Z,21.42
2019-06-07T21:52:47.013Z,21.37
2019-06-07T21:55:16.849Z,21.32
2019-06-07T21:57:46.602Z,21.32
2019-06-07T22:00:18.814Z,21.34
2019-06-07T22:02:48.588Z,21.32
2019-06-07T22:05:18.379Z,21.29
2019-06-07T22:07:50.150Z,21.28
2019-06-07T22:10:20.053Z,21.24
2019-06-07T22:12:49.699Z,21.26
2019-06-07T22:15:33.120Z,21.27
2019-06-07T22:17:51.011Z,21.27
2019-06-07T22:20:20.642Z,21.28
2019-06-07T22:22:50.653Z,21.33
2019-06-07T22:25:20.370Z,21.30
2019-06-07T22:27:50.082Z,21.18
2019-06-07T22:30:20.063Z,21.12
2019-06-07T22:32:49.732Z,21.12
2019-06-07T22:35:19.460Z,21.13
2019-06-07T22:37:49.099Z,21.12
2019-06-07T22:40:18.775Z,21.10
2019-06-07T22:42:48.413Z,21.01
2019-06-07T22:45:20.699Z,20.99
2019-06-07T22:47:50.977Z,20.96
2019-06-07T22:50:20.837Z,20.96
2019-06-07T22:52:50.548Z,20.92
2019-06-07T22:55:20.365Z,20.85
2019-06-07T22:57:57.117Z,20.87
2019-06-07T23:00:28.883Z,20.83
2019-06-07T23:02:58.526Z,20.78
2019-06-07T23:05:28.151Z,20.77
2019-06-07T23:07:57.910Z,20.80
2019-06-07T23:10:27.516Z,20.68
2019-06-07T23:12:57.164Z,20.68
2019-06-07T23:15:26.832Z,20.58
2019-06-07T23:17:56.759Z,20.58
2019-06-07T23:20:26.394Z,20.54
2019-06-07T23:22:56.170Z,20.52
2019-06-07T23:25:25.822Z,20.52
2019-06-07T23:27:55.473Z,20.49
2019-06-07T23:30:25.252Z,20.50
2019-06-07T23:32:54.921Z,20.53
2019-06-07T23:35:25.246Z,20.54
2019-06-07T23:37:54.922Z,20.50
2019-06-07T23:40:24.583Z,20.50
2019-06-07T23:42:54.238Z,20.43
2019-06-07T23:45:23.906Z,20.42
2019-06-07T23:47:53.715Z,20.42
2019-06-07T23:50:23.689Z,20.42
2019-06-07T23:52:54.037Z,20.41
2019-06-07T23:55:23.676Z,20.33
2019-06-07T23:57:53.347Z,20.32
